sensor_id;sensor_type;location;lat;lon;timestamp;temperature;humidity
58983;DHT22;44771;49.982;8.560;2022-08-07T00:02:52;15.60;66.90
58983;DHT22;44771;49.982;8.560;2022-08-07T00:08:02;15.50;67.40
58983;DHT22;44771;49.982;8.560;2022-08-07T00:13:27;15.50;67.20
58983;DHT22;44771;49.982;8.560;2022-08-07T00:18:36;15.50;67.70
58983;DHT22;44771;49.982;8.560;2022-08-07T00:23:42;15.30;68.10
58983;DHT22;44771;49.982;8.560;2022-08-07T00:28:58;15.30;68.50
58983;DHT22;44771;49.982;8.560;2022-08-07T00:34:04;15.20;68.70
58983;DHT22;44771;49.982;8.560;2022-08-07T00:39:15;15.10;68.70
58983;DHT22;44771;49.982;8.560;2022-08-07T00:44:33;15.10;68.90
58983;DHT22;44771;49.982;8.560;2022-08-07T00:49:45;15.10;69.90
58983;DHT22;44771;49.982;8.560;2022-08-07T00:55:14;15.00;69.50
58983;DHT22;44771;49.982;8.560;2022-08-07T01:00:51;14.90;69.60
58983;DHT22;44771;49.982;8.560;2022-08-07T01:06:03;15.00;70.10
58983;DHT22;44771;49.982;8.560;2022-08-07T01:11:22;14.90;70.00
58983;DHT22;44771;49.982;8.560;2022-08-07T01:16:58;14.80;69.90
58983;DHT22;44771;49.982;8.560;2022-08-07T01:22:14;14.80;70.20
58983;DHT22;44771;49.982;8.560;2022-08-07T01:27:39;14.80;70.80
58983;DHT22;44771;49.982;8.560;2022-08-07T01:32:57;14.90;70.40
58983;DHT22;44771;49.982;8.560;2022-08-07T01:38:11;14.80;70.50
58983;DHT22;44771;49.982;8.560;2022-08-07T01:43:36;14.80;70.40
58983;DHT22;44771;49.982;8.560;2022-08-07T01:48:52;14.80;70.70
58983;DHT22;44771;49.982;8.560;2022-08-07T01:54:10;14.80;71.00
58983;DHT22;44771;49.982;8.560;2022-08-07T01:59:43;14.60;71.80
58983;DHT22;44771;49.982;8.560;2022-08-07T02:05:01;14.30;72.90
58983;DHT22;44771;49.982;8.560;2022-08-07T02:10:27;14.20;73.40
58983;DHT22;44771;49.982;8.560;2022-08-07T02:15:51;14.10;73.80
58983;DHT22;44771;49.982;8.560;2022-08-07T02:21:05;14.10;73.90
58983;DHT22;44771;49.982;8.560;2022-08-07T02:32:07;14.00;74.80
58983;DHT22;44771;49.982;8.560;2022-08-07T02:37:29;14.00;75.20
58983;DHT22;44771;49.982;8.560;2022-08-07T02:42:51;14.00;75.40
58983;DHT22;44771;49.982;8.560;2022-08-07T02:48:08;13.90;76.00
58983;DHT22;44771;49.982;8.560;2022-08-07T02:53:20;13.80;76.70
58983;DHT22;44771;49.982;8.560;2022-08-07T02:58:36;13.70;77.10
58983;DHT22;44771;49.982;8.560;2022-08-07T03:04:11;13.70;77.60
58983;DHT22;44771;49.982;8.560;2022-08-07T03:09:25;13.70;77.70
58983;DHT22;44771;49.982;8.560;2022-08-07T03:14:59;13.70;78.70
58983;DHT22;44771;49.982;8.560;2022-08-07T03:20:13;13.60;79.30
58983;DHT22;44771;49.982;8.560;2022-08-07T03:25:27;13.50;80.50
58983;DHT22;44771;49.982;8.560;2022-08-07T03:30:59;13.50;81.10
58983;DHT22;44771;49.982;8.560;2022-08-07T03:36:27;13.30;82.60
58983;DHT22;44771;49.982;8.560;2022-08-07T03:41:45;13.30;83.80
58983;DHT22;44771;49.982;8.560;2022-08-07T03:46:59;13.20;85.30
58983;DHT22;44771;49.982;8.560;2022-08-07T03:52:26;13.20;87.00
58983;DHT22;44771;49.982;8.560;2022-08-07T03:57:41;13.10;87.60
58983;DHT22;44771;49.982;8.560;2022-08-07T04:03:18;13.10;88.10
58983;DHT22;44771;49.982;8.560;2022-08-07T04:08:41;13.10;89.10
58983;DHT22;44771;49.982;8.560;2022-08-07T04:14:00;12.90;90.20
58983;DHT22;44771;49.982;8.560;2022-08-07T04:19:42;12.90;91.20
58983;DHT22;44771;49.982;8.560;2022-08-07T04:24:59;12.80;91.40
58983;DHT22;44771;49.982;8.560;2022-08-07T04:30:14;12.80;92.10
58983;DHT22;44771;49.982;8.560;2022-08-07T04:35:47;12.80;92.10
58983;DHT22;44771;49.982;8.560;2022-08-07T04:41:03;13.00;91.60
58983;DHT22;44771;49.982;8.560;2022-08-07T04:46:29;13.00;92.10
58983;DHT22;44771;49.982;8.560;2022-08-07T04:52:02;13.10;91.60
58983;DHT22;44771;49.982;8.560;2022-08-07T04:57:45;13.30;91.20
58983;DHT22;44771;49.982;8.560;2022-08-07T05:03:09;13.50;90.70
58983;DHT22;44771;49.982;8.560;2022-08-07T05:09:00;13.60;90.30
58983;DHT22;44771;49.982;8.560;2022-08-07T05:14:13;13.90;89.70
58983;DHT22;44771;49.982;8.560;2022-08-07T05:19:48;14.20;87.70
58983;DHT22;44771;49.982;8.560;2022-08-07T05:24:52;14.20;88.10
58983;DHT22;44771;49.982;8.560;2022-08-07T05:29:55;14.30;87.80
58983;DHT22;44771;49.982;8.560;2022-08-07T05:35:09;14.40;88.30
58983;DHT22;44771;49.982;8.560;2022-08-07T05:40:14;14.50;86.50
58983;DHT22;44771;49.982;8.560;2022-08-07T05:45:29;14.70;86.30
58983;DHT22;44771;49.982;8.560;2022-08-07T05:50:49;14.90;85.10
58983;DHT22;44771;49.982;8.560;2022-08-07T05:55:53;15.10;84.10
58983;DHT22;44771;49.982;8.560;2022-08-07T06:01:12;15.30;82.80
58983;DHT22;44771;49.982;8.560;2022-08-07T06:06:15;15.50;81.60
58983;DHT22;44771;49.982;8.560;2022-08-07T06:11:27;15.70;81.50
58983;DHT22;44771;49.982;8.560;2022-08-07T06:16:31;15.80;79.70
58983;DHT22;44771;49.982;8.560;2022-08-07T06:21:35;16.20;76.50
58983;DHT22;44771;49.982;8.560;2022-08-07T06:27:05;16.30;77.90
58983;DHT22;44771;49.982;8.560;2022-08-07T06:32:10;16.50;75.20
58983;DHT22;44771;49.982;8.560;2022-08-07T06:37:14;16.80;74.10
58983;DHT22;44771;49.982;8.560;2022-08-07T06:42:27;16.90;72.90
58983;DHT22;44771;49.982;8.560;2022-08-07T06:47:36;17.10;74.00
58983;DHT22;44771;49.982;8.560;2022-08-07T06:52:58;17.30;70.20
58983;DHT22;44771;49.982;8.560;2022-08-07T06:58:08;17.60;69.60
58983;DHT22;44771;49.982;8.560;2022-08-07T07:03:12;17.60;68.90
58983;DHT22;44771;49.982;8.560;2022-08-07T07:08:18;17.90;70.10
58983;DHT22;44771;49.982;8.560;2022-08-07T07:13:32;17.90;68.60
58983;DHT22;44771;49.982;8.560;2022-08-07T07:18:58;18.00;68.50
58983;DHT22;44771;49.982;8.560;2022-08-07T07:24:00;18.30;66.90
58983;DHT22;44771;49.982;8.560;2022-08-07T07:29:14;18.50;68.30
58983;DHT22;44771;49.982;8.560;2022-08-07T07:34:41;18.60;64.50
58983;DHT22;44771;49.982;8.560;2022-08-07T07:39:46;18.90;65.00
58983;DHT22;44771;49.982;8.560;2022-08-07T07:44:58;19.30;63.20
58983;DHT22;44771;49.982;8.560;2022-08-07T07:50:02;19.50;62.40
58983;DHT22;44771;49.982;8.560;2022-08-07T07:55:26;19.80;62.40
58983;DHT22;44771;49.982;8.560;2022-08-07T08:00:48;20.00;62.50
58983;DHT22;44771;49.982;8.560;2022-08-07T08:05:55;20.40;59.10
58983;DHT22;44771;49.982;8.560;2022-08-07T08:10:58;20.80;60.00
58983;DHT22;44771;49.982;8.560;2022-08-07T08:16:04;21.00;58.50
58983;DHT22;44771;49.982;8.560;2022-08-07T08:21:14;21.10;57.20
58983;DHT22;44771;49.982;8.560;2022-08-07T08:26:18;21.20;58.60
58983;DHT22;44771;49.982;8.560;2022-08-07T08:31:32;21.70;56.60
58983;DHT22;44771;49.982;8.560;2022-08-07T08:37:04;22.00;57.60
58983;DHT22;44771;49.982;8.560;2022-08-07T08:42:32;22.20;56.60
58983;DHT22;44771;49.982;8.560;2022-08-07T08:47:51;22.40;55.90
58983;DHT22;44771;49.982;8.560;2022-08-07T08:53:14;22.70;56.70
58983;DHT22;44771;49.982;8.560;2022-08-07T08:58:26;22.80;54.80
58983;DHT22;44771;49.982;8.560;2022-08-07T09:03:43;22.90;55.80
58983;DHT22;44771;49.982;8.560;2022-08-07T09:09:01;23.30;56.30
58983;DHT22;44771;49.982;8.560;2022-08-07T09:14:13;23.50;55.40
58983;DHT22;44771;49.982;8.560;2022-08-07T09:19:40;23.70;55.20
58983;DHT22;44771;49.982;8.560;2022-08-07T09:25:00;23.70;56.80
58983;DHT22;44771;49.982;8.560;2022-08-07T09:30:18;23.70;56.70
58983;DHT22;44771;49.982;8.560;2022-08-07T09:35:37;24.00;55.40
58983;DHT22;44771;49.982;8.560;2022-08-07T09:41:06;24.30;56.00
58983;DHT22;44771;49.982;8.560;2022-08-07T09:46:19;24.50;55.00
58983;DHT22;44771;49.982;8.560;2022-08-07T09:51:52;24.70;56.30
58983;DHT22;44771;49.982;8.560;2022-08-07T10:03:17;25.20;53.80
58983;DHT22;44771;49.982;8.560;2022-08-07T10:09:18;25.30;53.00
58983;DHT22;44771;49.982;8.560;2022-08-07T10:15:09;25.40;54.10
58983;DHT22;44771;49.982;8.560;2022-08-07T10:20:27;25.90;52.70
58983;DHT22;44771;49.982;8.560;2022-08-07T10:25:49;26.50;50.30
58983;DHT22;44771;49.982;8.560;2022-08-07T10:31:10;26.10;50.70
58983;DHT22;44771;49.982;8.560;2022-08-07T10:47:27;25.90;46.60
58983;DHT22;44771;49.982;8.560;2022-08-07T10:52:57;26.40;46.70
58983;DHT22;44771;49.982;8.560;2022-08-07T10:58:16;26.90;47.40
58983;DHT22;44771;49.982;8.560;2022-08-07T11:03:39;26.90;47.40
58983;DHT22;44771;49.982;8.560;2022-08-07T11:09:02;26.80;45.80
58983;DHT22;44771;49.982;8.560;2022-08-07T11:14:16;26.80;48.30
58983;DHT22;44771;49.982;8.560;2022-08-07T11:19:49;27.20;44.90
58983;DHT22;44771;49.982;8.560;2022-08-07T11:24:57;27.70;45.50
58983;DHT22;44771;49.982;8.560;2022-08-07T11:30:11;27.90;42.60
58983;DHT22;44771;49.982;8.560;2022-08-07T11:35:28;27.90;44.20
58983;DHT22;44771;49.982;8.560;2022-08-07T12:14:48;28.20;42.30
58983;DHT22;44771;49.982;8.560;2022-08-07T12:20:07;28.30;41.00
58983;DHT22;44771;49.982;8.560;2022-08-07T12:25:35;28.30;42.70
58983;DHT22;44771;49.982;8.560;2022-08-07T12:31:05;28.40;41.20
58983;DHT22;44771;49.982;8.560;2022-08-07T12:36:13;28.00;41.00
58983;DHT22;44771;49.982;8.560;2022-08-07T12:41:16;28.20;43.00
58983;DHT22;44771;49.982;8.560;2022-08-07T12:46:30;28.20;41.00
58983;DHT22;44771;49.982;8.560;2022-08-07T12:51:40;28.40;43.10
58983;DHT22;44771;49.982;8.560;2022-08-07T12:57:04;28.10;40.80
58983;DHT22;44771;49.982;8.560;2022-08-07T13:08:16;28.40;41.90
58983;DHT22;44771;49.982;8.560;2022-08-07T13:13:32;28.50;40.50
58983;DHT22;44771;49.982;8.560;2022-08-07T13:18:56;28.70;41.90
58983;DHT22;44771;49.982;8.560;2022-08-07T13:24:06;29.00;40.20
58983;DHT22;44771;49.982;8.560;2022-08-07T13:29:15;29.10;39.80
58983;DHT22;44771;49.982;8.560;2022-08-07T13:34:25;29.10;39.00
58983;DHT22;44771;49.982;8.560;2022-08-07T13:51:34;29.10;39.10
58983;DHT22;44771;49.982;8.560;2022-08-07T14:26:11;28.30;39.30
58983;DHT22;44771;49.982;8.560;2022-08-07T14:31:31;28.60;39.80
58983;DHT22;44771;49.982;8.560;2022-08-07T14:36:54;28.50;38.00
58983;DHT22;44771;49.982;8.560;2022-08-07T14:42:00;28.70;37.90
58983;DHT22;44771;49.982;8.560;2022-08-07T14:47:22;28.50;36.60
58983;DHT22;44771;49.982;8.560;2022-08-07T14:52:46;28.40;38.40
58983;DHT22;44771;49.982;8.560;2022-08-07T14:57:53;28.70;39.70
58983;DHT22;44771;49.982;8.560;2022-08-07T15:03:20;28.70;38.50
58983;DHT22;44771;49.982;8.560;2022-08-07T15:08:44;28.80;38.30
58983;DHT22;44771;49.982;8.560;2022-08-07T15:13:59;28.30;38.20
58983;DHT22;44771;49.982;8.560;2022-08-07T15:24:53;28.30;38.90
58983;DHT22;44771;49.982;8.560;2022-08-07T15:30:17;28.40;38.80
58983;DHT22;44771;49.982;8.560;2022-08-07T15:35:22;28.20;38.40
58983;DHT22;44771;49.982;8.560;2022-08-07T15:40:46;28.20;37.90
58983;DHT22;44771;49.982;8.560;2022-08-07T15:46:18;28.10;39.10
58983;DHT22;44771;49.982;8.560;2022-08-07T15:51:33;28.20;39.70
58983;DHT22;44771;49.982;8.560;2022-08-07T15:56:58;28.20;39.00
58983;DHT22;44771;49.982;8.560;2022-08-07T16:02:03;28.00;38.50
58983;DHT22;44771;49.982;8.560;2022-08-07T16:07:07;27.80;38.70
58983;DHT22;44771;49.982;8.560;2022-08-07T16:12:38;27.60;39.70
58983;DHT22;44771;49.982;8.560;2022-08-07T16:18:12;27.50;38.80
58983;DHT22;44771;49.982;8.560;2022-08-07T16:23:52;27.30;39.60
58983;DHT22;44771;49.982;8.560;2022-08-07T16:29:08;27.10;38.90
58983;DHT22;44771;49.982;8.560;2022-08-07T16:34:41;26.90;38.80
58983;DHT22;44771;49.982;8.560;2022-08-07T16:46:21;26.40;41.50
58983;DHT22;44771;49.982;8.560;2022-08-07T16:51:51;26.10;40.50
58983;DHT22;44771;49.982;8.560;2022-08-07T16:57:29;25.80;40.90
58983;DHT22;44771;49.982;8.560;2022-08-07T17:03:07;25.60;41.10
58983;DHT22;44771;49.982;8.560;2022-08-07T17:08:33;25.70;40.50
58983;DHT22;44771;49.982;8.560;2022-08-07T17:14:02;25.60;40.20
58983;DHT22;44771;49.982;8.560;2022-08-07T17:19:22;25.50;41.00
58983;DHT22;44771;49.982;8.560;2022-08-07T17:25:02;25.50;40.60
58983;DHT22;44771;49.982;8.560;2022-08-07T17:30:10;25.40;40.80
58983;DHT22;44771;49.982;8.560;2022-08-07T17:35:23;25.20;40.60
58983;DHT22;44771;49.982;8.560;2022-08-07T17:41:00;25.10;41.00
58983;DHT22;44771;49.982;8.560;2022-08-07T17:46:26;25.10;41.60
58983;DHT22;44771;49.982;8.560;2022-08-07T17:51:38;25.00;41.30
58983;DHT22;44771;49.982;8.560;2022-08-07T17:57:10;25.00;41.90
58983;DHT22;44771;49.982;8.560;2022-08-07T18:16:59;24.10;44.60
58983;DHT22;44771;49.982;8.560;2022-08-07T18:22:12;24.00;43.90
58983;DHT22;44771;49.982;8.560;2022-08-07T18:27:53;24.00;44.00
58983;DHT22;44771;49.982;8.560;2022-08-07T18:33:24;23.90;44.30
58983;DHT22;44771;49.982;8.560;2022-08-07T18:38:41;23.70;44.90
58983;DHT22;44771;49.982;8.560;2022-08-07T18:44:07;23.30;45.10
58983;DHT22;44771;49.982;8.560;2022-08-07T18:49:20;23.20;45.30
58983;DHT22;44771;49.982;8.560;2022-08-07T18:54:50;23.10;45.20
58983;DHT22;44771;49.982;8.560;2022-08-07T19:00:02;23.10;45.70
58983;DHT22;44771;49.982;8.560;2022-08-07T19:05:31;22.80;52.00
58983;DHT22;44771;49.982;8.560;2022-08-07T19:10:57;22.30;53.00
58983;DHT22;44771;49.982;8.560;2022-08-07T19:16:03;21.60;53.40
58983;DHT22;44771;49.982;8.560;2022-08-07T19:21:37;21.30;53.30
58983;DHT22;44771;49.982;8.560;2022-08-07T19:26:53;21.00;55.20
58983;DHT22;44771;49.982;8.560;2022-08-07T19:32:17;20.60;55.20
58983;DHT22;44771;49.982;8.560;2022-08-07T19:37:42;20.30;55.00
58983;DHT22;44771;49.982;8.560;2022-08-07T19:42:58;20.10;55.50
58983;DHT22;44771;49.982;8.560;2022-08-07T19:48:04;20.00;55.20
58983;DHT22;44771;49.982;8.560;2022-08-07T19:53:21;19.80;55.80
58983;DHT22;44771;49.982;8.560;2022-08-07T19:58:45;19.60;55.50
58983;DHT22;44771;49.982;8.560;2022-08-07T20:03:55;19.50;55.80
58983;DHT22;44771;49.982;8.560;2022-08-07T20:08:59;19.30;56.90
58983;DHT22;44771;49.982;8.560;2022-08-07T20:14:01;19.30;57.00
58983;DHT22;44771;49.982;8.560;2022-08-07T20:19:09;19.20;57.60
58983;DHT22;44771;49.982;8.560;2022-08-07T20:24:17;19.00;57.90
58983;DHT22;44771;49.982;8.560;2022-08-07T20:29:21;18.90;57.50
58983;DHT22;44771;49.982;8.560;2022-08-07T20:34:44;18.70;58.10
58983;DHT22;44771;49.982;8.560;2022-08-07T20:39:55;18.70;58.00
58983;DHT22;44771;49.982;8.560;2022-08-07T20:45:06;18.50;58.80
58983;DHT22;44771;49.982;8.560;2022-08-07T20:50:29;18.40;59.00
58983;DHT22;44771;49.982;8.560;2022-08-07T20:55:33;18.20;61.10
58983;DHT22;44771;49.982;8.560;2022-08-07T21:00:43;18.00;59.70
58983;DHT22;44771;49.982;8.560;2022-08-07T21:05:47;17.90;60.90
58983;DHT22;44771;49.982;8.560;2022-08-07T21:10:58;17.70;60.70
58983;DHT22;44771;49.982;8.560;2022-08-07T21:16:04;17.50;61.00
58983;DHT22;44771;49.982;8.560;2022-08-07T21:21:07;17.30;61.60
58983;DHT22;44771;49.982;8.560;2022-08-07T21:26:20;17.10;62.40
58983;DHT22;44771;49.982;8.560;2022-08-07T21:31:34;17.00;62.70
58983;DHT22;44771;49.982;8.560;2022-08-07T21:37:02;16.90;64.30
58983;DHT22;44771;49.982;8.560;2022-08-07T21:42:13;16.70;64.10
58983;DHT22;44771;49.982;8.560;2022-08-07T21:47:39;16.50;64.10
58983;DHT22;44771;49.982;8.560;2022-08-07T21:52:57;16.30;65.00
58983;DHT22;44771;49.982;8.560;2022-08-07T21:58:20;16.10;65.50
58983;DHT22;44771;49.982;8.560;2022-08-07T22:03:38;15.90;66.70
58983;DHT22;44771;49.982;8.560;2022-08-07T22:08:50;15.80;67.80
58983;DHT22;44771;49.982;8.560;2022-08-07T22:13:56;15.70;67.50
58983;DHT22;44771;49.982;8.560;2022-08-07T22:19:09;15.50;68.00
58983;DHT22;44771;49.982;8.560;2022-08-07T22:24:15;15.40;68.90
58983;DHT22;44771;49.982;8.560;2022-08-07T22:29:24;15.20;69.20
58983;DHT22;44771;49.982;8.560;2022-08-07T22:34:44;15.10;71.40
58983;DHT22;44771;49.982;8.560;2022-08-07T22:39:56;15.00;70.60
58983;DHT22;44771;49.982;8.560;2022-08-07T22:45:02;15.00;70.20
58983;DHT22;44771;49.982;8.560;2022-08-07T22:50:38;15.30;68.00
58983;DHT22;44771;49.982;8.560;2022-08-07T22:55:55;15.30;67.50
58983;DHT22;44771;49.982;8.560;2022-08-07T23:01:14;15.30;66.70
58983;DHT22;44771;49.982;8.560;2022-08-07T23:06:34;15.40;66.00
58983;DHT22;44771;49.982;8.560;2022-08-07T23:11:50;15.60;65.70
58983;DHT22;44771;49.982;8.560;2022-08-07T23:17:24;15.80;65.60
58983;DHT22;44771;49.982;8.560;2022-08-07T23:22:38;16.00;65.90
58983;DHT22;44771;49.982;8.560;2022-08-07T23:28:01;16.30;65.10
58983;DHT22;44771;49.982;8.560;2022-08-07T23:33:52;16.60;64.00
58983;DHT22;44771;49.982;8.560;2022-08-07T23:39:33;16.80;63.20
58983;DHT22;44771;49.982;8.560;2022-08-07T23:45:01;16.70;64.00
58983;DHT22;44771;49.982;8.560;2022-08-07T23:50:23;16.60;63.90
58983;DHT22;44771;49.982;8.560;2022-08-07T23:55:31;16.50;64.70
